Bengall, Arkansas
Current Conditions -  °F | °C
As of 3:56 AM on Sunday 23 Nov 2014 (Local Time) from KM19 Reporting Station
Light Rain Light Rain  
Wind Chill: 56°   Ceiling: 1700
Heat Index: 56°   Visibility: 3mi
Dew Point: 53°   Wind: 15mph
Humidity: 89%   Direction: 160°SSE
Pressure: 29.76"   Gusts: NA
Location:  35.5678°N, 91.2073°W
Report Text: KM19 230956Z AUTO 16013KT 3SM -RA BR BKN017 13/12 A2976 RMK AO2 T01330116 RAB15 P0000 SLP077
Loading
Personal Weather Stations






























Interactive Weather Map New forecast layout! Learn more

10-Day Weather Forecast

Advertisements
Track Severe Weather on mobile